sensor_id;sensor_type;location;lat;lon;timestamp;P1;durP1;ratioP1;P2;durP2;ratioP2
29878;SDS011;16752;53.364;-1.488;2023-04-24T00:02:03;5.88;;;3.42;;
29878;SDS011;16752;53.364;-1.488;2023-04-24T00:04:51;8.88;;;3.67;;
29878;SDS011;16752;53.364;-1.488;2023-04-24T00:07:35;11.30;;;3.20;;
29878;SDS011;16752;53.364;-1.488;2023-04-24T00:10:19;10.63;;;2.83;;
29878;SDS011;16752;53.364;-1.488;2023-04-24T00:13:04;6.00;;;2.47;;
29878;SDS011;16752;53.364;-1.488;2023-04-24T00:15:47;8.77;;;3.15;;
29878;SDS011;16752;53.364;-1.488;2023-04-24T00:18:34;9.05;;;2.67;;
29878;SDS011;16752;53.364;-1.488;2023-04-24T00:21:18;5.55;;;2.40;;
29878;SDS011;16752;53.364;-1.488;2023-04-24T00:24:05;4.28;;;2.35;;
29878;SDS011;16752;53.364;-1.488;2023-04-24T00:26:52;6.25;;;2.33;;
29878;SDS011;16752;53.364;-1.488;2023-04-24T00:29:36;8.77;;;3.72;;
29878;SDS011;16752;53.364;-1.488;2023-04-24T00:32:23;8.40;;;2.78;;
29878;SDS011;16752;53.364;-1.488;2023-04-24T00:35:10;6.72;;;2.47;;
29878;SDS011;16752;53.364;-1.488;2023-04-24T00:37:54;16.48;;;2.85;;
29878;SDS011;16752;53.364;-1.488;2023-04-24T00:40:38;8.05;;;2.28;;
29878;SDS011;16752;53.364;-1.488;2023-04-24T00:43:23;6.90;;;3.35;;
29878;SDS011;16752;53.364;-1.488;2023-04-24T00:46:08;7.88;;;2.42;;
29878;SDS011;16752;53.364;-1.488;2023-04-24T00:48:52;9.05;;;2.70;;
29878;SDS011;16752;53.364;-1.488;2023-04-24T00:51:36;8.80;;;2.67;;
29878;SDS011;16752;53.364;-1.488;2023-04-24T00:54:24;9.93;;;2.63;;
29878;SDS011;16752;53.364;-1.488;2023-04-24T00:57:12;7.50;;;2.80;;
29878;SDS011;16752;53.364;-1.488;2023-04-24T01:00:01;6.40;;;2.60;;
29878;SDS011;16752;53.364;-1.488;2023-04-24T01:02:46;7.18;;;2.47;;
29878;SDS011;16752;53.364;-1.488;2023-04-24T01:08:39;6.28;;;1.83;;
29878;SDS011;16752;53.364;-1.488;2023-04-24T01:11:25;6.20;;;2.47;;
29878;SDS011;16752;53.364;-1.488;2023-04-24T01:14:09;8.02;;;2.60;;
29878;SDS011;16752;53.364;-1.488;2023-04-24T01:16:55;11.63;;;3.38;;
29878;SDS011;16752;53.364;-1.488;2023-04-24T01:19:39;9.52;;;2.00;;
29878;SDS011;16752;53.364;-1.488;2023-04-24T01:22:26;7.90;;;2.13;;
29878;SDS011;16752;53.364;-1.488;2023-04-24T01:25:10;10.13;;;3.00;;
29878;SDS011;16752;53.364;-1.488;2023-04-24T01:27:56;6.32;;;1.98;;
29878;SDS011;16752;53.364;-1.488;2023-04-24T01:31:02;5.38;;;2.00;;
29878;SDS011;16752;53.364;-1.488;2023-04-24T01:33:49;9.00;;;2.13;;
29878;SDS011;16752;53.364;-1.488;2023-04-24T01:36:42;6.78;;;2.45;;
29878;SDS011;16752;53.364;-1.488;2023-04-24T01:39:31;5.65;;;1.88;;
29878;SDS011;16752;53.364;-1.488;2023-04-24T01:42:16;5.10;;;2.17;;
29878;SDS011;16752;53.364;-1.488;2023-04-24T01:45:04;7.40;;;2.00;;
29878;SDS011;16752;53.364;-1.488;2023-04-24T01:47:58;6.13;;;1.48;;
29878;SDS011;16752;53.364;-1.488;2023-04-24T01:50:42;5.25;;;2.08;;
29878;SDS011;16752;53.364;-1.488;2023-04-24T01:53:26;5.53;;;1.88;;
29878;SDS011;16752;53.364;-1.488;2023-04-24T01:56:12;10.43;;;2.10;;
29878;SDS011;16752;53.364;-1.488;2023-04-24T01:59:35;5.35;;;1.50;;
29878;SDS011;16752;53.364;-1.488;2023-04-24T02:02:31;5.82;;;1.70;;
29878;SDS011;16752;53.364;-1.488;2023-04-24T02:05:23;4.05;;;1.58;;
29878;SDS011;16752;53.364;-1.488;2023-04-24T02:08:16;4.53;;;2.30;;
29878;SDS011;16752;53.364;-1.488;2023-04-24T02:11:03;9.73;;;2.63;;
29878;SDS011;16752;53.364;-1.488;2023-04-24T02:13:55;6.03;;;1.83;;
29878;SDS011;16752;53.364;-1.488;2023-04-24T02:16:41;7.47;;;2.35;;
29878;SDS011;16752;53.364;-1.488;2023-04-24T02:19:29;7.13;;;2.40;;
29878;SDS011;16752;53.364;-1.488;2023-04-24T02:22:23;4.53;;;1.70;;
29878;SDS011;16752;53.364;-1.488;2023-04-24T02:25:23;7.00;;;1.92;;
29878;SDS011;16752;53.364;-1.488;2023-04-24T02:28:16;5.13;;;2.25;;
29878;SDS011;16752;53.364;-1.488;2023-04-24T02:31:07;7.38;;;1.83;;
29878;SDS011;16752;53.364;-1.488;2023-04-24T02:33:59;5.38;;;2.03;;
29878;SDS011;16752;53.364;-1.488;2023-04-24T02:36:45;4.47;;;2.20;;
29878;SDS011;16752;53.364;-1.488;2023-04-24T02:39:32;4.85;;;2.05;;
29878;SDS011;16752;53.364;-1.488;2023-04-24T02:42:19;6.65;;;2.25;;
29878;SDS011;16752;53.364;-1.488;2023-04-24T02:45:03;4.85;;;1.73;;
29878;SDS011;16752;53.364;-1.488;2023-04-24T02:47:50;9.60;;;2.63;;
29878;SDS011;16752;53.364;-1.488;2023-04-24T02:50:40;4.75;;;2.00;;
29878;SDS011;16752;53.364;-1.488;2023-04-24T02:53:37;10.25;;;2.17;;
29878;SDS011;16752;53.364;-1.488;2023-04-24T02:56:24;5.03;;;1.77;;
29878;SDS011;16752;53.364;-1.488;2023-04-24T02:59:08;5.18;;;2.33;;
29878;SDS011;16752;53.364;-1.488;2023-04-24T03:01:55;7.47;;;2.42;;
29878;SDS011;16752;53.364;-1.488;2023-04-24T03:04:41;5.55;;;2.53;;
29878;SDS011;16752;53.364;-1.488;2023-04-24T03:07:26;4.82;;;1.88;;
29878;SDS011;16752;53.364;-1.488;2023-04-24T03:10:13;4.07;;;2.00;;
29878;SDS011;16752;53.364;-1.488;2023-04-24T03:12:57;6.72;;;1.95;;
29878;SDS011;16752;53.364;-1.488;2023-04-24T03:15:42;4.30;;;2.22;;
29878;SDS011;16752;53.364;-1.488;2023-04-24T03:18:33;12.40;;;2.70;;
29878;SDS011;16752;53.364;-1.488;2023-04-24T03:21:17;6.85;;;2.92;;
29878;SDS011;16752;53.364;-1.488;2023-04-24T03:24:04;7.75;;;1.98;;
29878;SDS011;16752;53.364;-1.488;2023-04-24T03:26:51;9.65;;;2.20;;
29878;SDS011;16752;53.364;-1.488;2023-04-24T03:29:35;11.23;;;2.67;;
29878;SDS011;16752;53.364;-1.488;2023-04-24T03:32:21;6.68;;;2.30;;
29878;SDS011;16752;53.364;-1.488;2023-04-24T03:35:15;8.20;;;2.78;;
29878;SDS011;16752;53.364;-1.488;2023-04-24T03:38:02;11.52;;;3.47;;
29878;SDS011;16752;53.364;-1.488;2023-04-24T03:40:51;9.10;;;2.60;;
29878;SDS011;16752;53.364;-1.488;2023-04-24T03:43:38;12.65;;;3.15;;
29878;SDS011;16752;53.364;-1.488;2023-04-24T03:50:03;4.18;;;2.63;;
29878;SDS011;16752;53.364;-1.488;2023-04-24T03:53:03;9.13;;;2.13;;
29878;SDS011;16752;53.364;-1.488;2023-04-24T03:55:47;7.43;;;2.05;;
29878;SDS011;16752;53.364;-1.488;2023-04-24T03:58:31;9.20;;;2.72;;
29878;SDS011;16752;53.364;-1.488;2023-04-24T04:01:19;8.30;;;2.22;;
29878;SDS011;16752;53.364;-1.488;2023-04-24T04:04:12;5.18;;;2.20;;
29878;SDS011;16752;53.364;-1.488;2023-04-24T04:06:56;9.00;;;2.63;;
29878;SDS011;16752;53.364;-1.488;2023-04-24T04:09:47;4.63;;;2.10;;
29878;SDS011;16752;53.364;-1.488;2023-04-24T04:12:39;8.77;;;2.20;;
29878;SDS011;16752;53.364;-1.488;2023-04-24T04:15:23;3.88;;;2.42;;
29878;SDS011;16752;53.364;-1.488;2023-04-24T04:18:07;8.35;;;2.05;;
29878;SDS011;16752;53.364;-1.488;2023-04-24T04:21:03;5.20;;;2.20;;
29878;SDS011;16752;53.364;-1.488;2023-04-24T04:23:55;4.35;;;2.03;;
29878;SDS011;16752;53.364;-1.488;2023-04-24T04:26:51;9.13;;;2.03;;
29878;SDS011;16752;53.364;-1.488;2023-04-24T04:29:36;7.40;;;2.08;;
29878;SDS011;16752;53.364;-1.488;2023-04-24T04:32:20;8.95;;;2.25;;
29878;SDS011;16752;53.364;-1.488;2023-04-24T04:35:10;7.22;;;2.20;;
29878;SDS011;16752;53.364;-1.488;2023-04-24T04:37:54;6.60;;;2.08;;
29878;SDS011;16752;53.364;-1.488;2023-04-24T04:40:45;7.22;;;2.10;;
29878;SDS011;16752;53.364;-1.488;2023-04-24T04:43:33;7.70;;;1.90;;
29878;SDS011;16752;53.364;-1.488;2023-04-24T04:46:18;7.25;;;2.83;;
29878;SDS011;16752;53.364;-1.488;2023-04-24T04:49:09;7.15;;;2.53;;
29878;SDS011;16752;53.364;-1.488;2023-04-24T04:52:02;9.25;;;3.20;;
29878;SDS011;16752;53.364;-1.488;2023-04-24T04:58:21;6.00;;;2.03;;
29878;SDS011;16752;53.364;-1.488;2023-04-24T05:01:18;5.13;;;1.85;;
29878;SDS011;16752;53.364;-1.488;2023-04-24T05:04:13;10.35;;;3.05;;
29878;SDS011;16752;53.364;-1.488;2023-04-24T05:07:11;6.00;;;2.33;;
29878;SDS011;16752;53.364;-1.488;2023-04-24T05:10:14;6.78;;;1.85;;
29878;SDS011;16752;53.364;-1.488;2023-04-24T05:12:58;8.27;;;2.50;;
29878;SDS011;16752;53.364;-1.488;2023-04-24T05:15:42;5.15;;;2.22;;
29878;SDS011;16752;53.364;-1.488;2023-04-24T05:18:29;6.88;;;2.33;;
29878;SDS011;16752;53.364;-1.488;2023-04-24T05:21:32;10.75;;;2.40;;
29878;SDS011;16752;53.364;-1.488;2023-04-24T05:24:18;4.35;;;1.73;;
29878;SDS011;16752;53.364;-1.488;2023-04-24T05:27:05;6.00;;;2.00;;
29878;SDS011;16752;53.364;-1.488;2023-04-24T05:29:52;7.70;;;1.83;;
29878;SDS011;16752;53.364;-1.488;2023-04-24T05:33:02;6.70;;;1.85;;
29878;SDS011;16752;53.364;-1.488;2023-04-24T05:35:49;6.07;;;2.53;;
29878;SDS011;16752;53.364;-1.488;2023-04-24T05:38:34;8.90;;;2.72;;
29878;SDS011;16752;53.364;-1.488;2023-04-24T05:41:18;9.23;;;3.13;;
29878;SDS011;16752;53.364;-1.488;2023-04-24T05:44:05;8.85;;;2.50;;
29878;SDS011;16752;53.364;-1.488;2023-04-24T05:46:50;11.23;;;2.42;;
29878;SDS011;16752;53.364;-1.488;2023-04-24T05:49:34;7.45;;;2.60;;
29878;SDS011;16752;53.364;-1.488;2023-04-24T05:52:18;7.07;;;2.92;;
29878;SDS011;16752;53.364;-1.488;2023-04-24T05:55:04;11.27;;;3.10;;
29878;SDS011;16752;53.364;-1.488;2023-04-24T05:57:49;7.95;;;3.28;;
29878;SDS011;16752;53.364;-1.488;2023-04-24T06:00:39;13.73;;;3.53;;
29878;SDS011;16752;53.364;-1.488;2023-04-24T06:03:26;7.90;;;2.80;;
29878;SDS011;16752;53.364;-1.488;2023-04-24T06:06:10;8.25;;;2.75;;
29878;SDS011;16752;53.364;-1.488;2023-04-24T06:08:54;16.58;;;3.28;;
29878;SDS011;16752;53.364;-1.488;2023-04-24T06:11:39;5.97;;;2.67;;
29878;SDS011;16752;53.364;-1.488;2023-04-24T06:14:23;7.68;;;2.42;;
29878;SDS011;16752;53.364;-1.488;2023-04-24T06:17:07;6.00;;;2.70;;
29878;SDS011;16752;53.364;-1.488;2023-04-24T06:19:51;8.30;;;2.95;;
29878;SDS011;16752;53.364;-1.488;2023-04-24T06:22:34;7.10;;;2.70;;
29878;SDS011;16752;53.364;-1.488;2023-04-24T06:25:19;10.30;;;2.65;;
29878;SDS011;16752;53.364;-1.488;2023-04-24T06:28:03;10.55;;;2.75;;
29878;SDS011;16752;53.364;-1.488;2023-04-24T06:30:48;8.10;;;2.60;;
29878;SDS011;16752;53.364;-1.488;2023-04-24T06:33:35;11.88;;;3.45;;
29878;SDS011;16752;53.364;-1.488;2023-04-24T06:36:19;10.88;;;2.85;;
29878;SDS011;16752;53.364;-1.488;2023-04-24T06:39:03;20.27;;;3.60;;
29878;SDS011;16752;53.364;-1.488;2023-04-24T06:41:47;11.93;;;3.10;;
29878;SDS011;16752;53.364;-1.488;2023-04-24T06:44:31;10.85;;;3.03;;
29878;SDS011;16752;53.364;-1.488;2023-04-24T06:47:15;6.43;;;2.67;;
29878;SDS011;16752;53.364;-1.488;2023-04-24T06:49:59;4.57;;;3.40;;
29878;SDS011;16752;53.364;-1.488;2023-04-24T06:52:43;16.27;;;2.88;;
29878;SDS011;16752;53.364;-1.488;2023-04-24T06:55:28;11.30;;;2.70;;
29878;SDS011;16752;53.364;-1.488;2023-04-24T06:58:11;9.05;;;3.05;;
29878;SDS011;16752;53.364;-1.488;2023-04-24T07:00:56;11.80;;;3.25;;
29878;SDS011;16752;53.364;-1.488;2023-04-24T07:03:39;9.35;;;3.42;;
29878;SDS011;16752;53.364;-1.488;2023-04-24T07:06:23;6.10;;;2.78;;
29878;SDS011;16752;53.364;-1.488;2023-04-24T07:09:08;18.65;;;4.43;;
29878;SDS011;16752;53.364;-1.488;2023-04-24T07:11:53;9.07;;;3.53;;
29878;SDS011;16752;53.364;-1.488;2023-04-24T07:14:46;10.65;;;3.47;;
29878;SDS011;16752;53.364;-1.488;2023-04-24T07:17:39;23.45;;;4.25;;
29878;SDS011;16752;53.364;-1.488;2023-04-24T07:20:26;17.33;;;3.67;;
29878;SDS011;16752;53.364;-1.488;2023-04-24T07:26:34;9.77;;;3.30;;
29878;SDS011;16752;53.364;-1.488;2023-04-24T07:29:30;9.73;;;4.68;;
29878;SDS011;16752;53.364;-1.488;2023-04-24T07:32:54;19.73;;;4.07;;
29878;SDS011;16752;53.364;-1.488;2023-04-24T07:35:56;12.02;;;3.63;;
29878;SDS011;16752;53.364;-1.488;2023-04-24T07:38:44;16.48;;;3.92;;
29878;SDS011;16752;53.364;-1.488;2023-04-24T07:41:29;15.35;;;4.07;;
29878;SDS011;16752;53.364;-1.488;2023-04-24T07:44:12;14.23;;;3.65;;
29878;SDS011;16752;53.364;-1.488;2023-04-24T07:46:56;15.38;;;3.47;;
29878;SDS011;16752;53.364;-1.488;2023-04-24T07:49:43;13.50;;;4.25;;
29878;SDS011;16752;53.364;-1.488;2023-04-24T07:55:58;16.20;;;4.18;;
29878;SDS011;16752;53.364;-1.488;2023-04-24T07:58:43;16.20;;;3.67;;
29878;SDS011;16752;53.364;-1.488;2023-04-24T08:01:27;13.95;;;3.75;;
29878;SDS011;16752;53.364;-1.488;2023-04-24T08:04:11;13.68;;;3.55;;
29878;SDS011;16752;53.364;-1.488;2023-04-24T08:06:55;11.82;;;3.45;;
29878;SDS011;16752;53.364;-1.488;2023-04-24T08:09:39;11.93;;;3.35;;
29878;SDS011;16752;53.364;-1.488;2023-04-24T08:12:24;8.65;;;3.35;;
29878;SDS011;16752;53.364;-1.488;2023-04-24T08:15:23;14.98;;;3.83;;
29878;SDS011;16752;53.364;-1.488;2023-04-24T08:18:20;11.48;;;3.35;;
29878;SDS011;16752;53.364;-1.488;2023-04-24T08:21:25;16.48;;;3.53;;
29878;SDS011;16752;53.364;-1.488;2023-04-24T08:24:19;13.35;;;4.22;;
29878;SDS011;16752;53.364;-1.488;2023-04-24T08:27:06;11.38;;;3.60;;
29878;SDS011;16752;53.364;-1.488;2023-04-24T08:29:53;12.05;;;3.45;;
29878;SDS011;16752;53.364;-1.488;2023-04-24T08:32:38;8.65;;;2.90;;
29878;SDS011;16752;53.364;-1.488;2023-04-24T08:35:22;10.70;;;3.35;;
29878;SDS011;16752;53.364;-1.488;2023-04-24T08:38:06;12.00;;;3.60;;
29878;SDS011;16752;53.364;-1.488;2023-04-24T08:41:01;12.32;;;3.15;;
29878;SDS011;16752;53.364;-1.488;2023-04-24T08:43:46;9.38;;;3.40;;
29878;SDS011;16752;53.364;-1.488;2023-04-24T08:46:33;8.25;;;3.08;;
29878;SDS011;16752;53.364;-1.488;2023-04-24T08:49:17;12.75;;;3.42;;
29878;SDS011;16752;53.364;-1.488;2023-04-24T08:52:03;10.60;;;3.67;;
29878;SDS011;16752;53.364;-1.488;2023-04-24T08:54:51;14.20;;;3.35;;
29878;SDS011;16752;53.364;-1.488;2023-04-24T08:57:37;8.85;;;3.13;;
29878;SDS011;16752;53.364;-1.488;2023-04-24T09:00:23;11.93;;;3.53;;
29878;SDS011;16752;53.364;-1.488;2023-04-24T09:03:08;10.00;;;3.28;;
29878;SDS011;16752;53.364;-1.488;2023-04-24T09:05:57;10.75;;;3.20;;
29878;SDS011;16752;53.364;-1.488;2023-04-24T09:08:46;13.85;;;4.05;;
29878;SDS011;16752;53.364;-1.488;2023-04-24T09:11:35;17.73;;;3.63;;
29878;SDS011;16752;53.364;-1.488;2023-04-24T09:14:32;14.32;;;3.45;;
29878;SDS011;16752;53.364;-1.488;2023-04-24T09:17:26;8.63;;;3.50;;
29878;SDS011;16752;53.364;-1.488;2023-04-24T09:20:29;13.82;;;3.70;;
29878;SDS011;16752;53.364;-1.488;2023-04-24T09:23:17;12.73;;;3.97;;
29878;SDS011;16752;53.364;-1.488;2023-04-24T09:26:15;17.23;;;3.78;;
29878;SDS011;16752;53.364;-1.488;2023-04-24T09:31:48;15.73;;;3.85;;
29878;SDS011;16752;53.364;-1.488;2023-04-24T09:34:35;13.25;;;4.72;;
29878;SDS011;16752;53.364;-1.488;2023-04-24T09:37:46;17.70;;;3.50;;
29878;SDS011;16752;53.364;-1.488;2023-04-24T09:40:34;13.88;;;3.40;;
29878;SDS011;16752;53.364;-1.488;2023-04-24T09:43:21;15.60;;;4.15;;
29878;SDS011;16752;53.364;-1.488;2023-04-24T09:46:06;13.10;;;3.70;;
29878;SDS011;16752;53.364;-1.488;2023-04-24T09:48:53;19.17;;;5.20;;
29878;SDS011;16752;53.364;-1.488;2023-04-24T09:51:39;11.93;;;3.63;;
29878;SDS011;16752;53.364;-1.488;2023-04-24T09:54:24;14.98;;;4.35;;
29878;SDS011;16752;53.364;-1.488;2023-04-24T09:57:14;13.18;;;3.53;;
29878;SDS011;16752;53.364;-1.488;2023-04-24T10:00:29;11.65;;;3.80;;
29878;SDS011;16752;53.364;-1.488;2023-04-24T10:03:13;14.68;;;3.75;;
29878;SDS011;16752;53.364;-1.488;2023-04-24T10:06:02;19.38;;;4.28;;
29878;SDS011;16752;53.364;-1.488;2023-04-24T10:08:59;16.77;;;3.60;;
29878;SDS011;16752;53.364;-1.488;2023-04-24T10:15:02;10.75;;;3.13;;
29878;SDS011;16752;53.364;-1.488;2023-04-24T10:20:45;8.10;;;3.28;;
29878;SDS011;16752;53.364;-1.488;2023-04-24T10:26:47;10.95;;;3.55;;
29878;SDS011;16752;53.364;-1.488;2023-04-24T10:29:32;11.23;;;3.55;;
29878;SDS011;16752;53.364;-1.488;2023-04-24T10:32:19;12.02;;;3.20;;
29878;SDS011;16752;53.364;-1.488;2023-04-24T10:35:03;9.63;;;2.65;;
29878;SDS011;16752;53.364;-1.488;2023-04-24T10:37:51;10.68;;;3.13;;
29878;SDS011;16752;53.364;-1.488;2023-04-24T10:40:36;10.07;;;3.33;;
29878;SDS011;16752;53.364;-1.488;2023-04-24T10:43:29;8.40;;;3.20;;
29878;SDS011;16752;53.364;-1.488;2023-04-24T10:46:16;12.10;;;3.20;;
29878;SDS011;16752;53.364;-1.488;2023-04-24T10:49:06;11.85;;;2.80;;
29878;SDS011;16752;53.364;-1.488;2023-04-24T10:51:52;10.80;;;3.35;;
29878;SDS011;16752;53.364;-1.488;2023-04-24T10:54:44;13.13;;;3.15;;
29878;SDS011;16752;53.364;-1.488;2023-04-24T10:57:30;8.30;;;3.22;;
29878;SDS011;16752;53.364;-1.488;2023-04-24T11:03:00;10.48;;;3.28;;
29878;SDS011;16752;53.364;-1.488;2023-04-24T11:05:53;12.85;;;4.05;;
29878;SDS011;16752;53.364;-1.488;2023-04-24T11:08:45;13.80;;;4.25;;
29878;SDS011;16752;53.364;-1.488;2023-04-24T11:11:29;11.77;;;3.75;;
29878;SDS011;16752;53.364;-1.488;2023-04-24T11:14:14;8.05;;;3.35;;
29878;SDS011;16752;53.364;-1.488;2023-04-24T11:17:05;10.10;;;2.72;;
29878;SDS011;16752;53.364;-1.488;2023-04-24T11:19:55;11.80;;;3.70;;
29878;SDS011;16752;53.364;-1.488;2023-04-24T11:22:50;13.30;;;2.60;;
29878;SDS011;16752;53.364;-1.488;2023-04-24T11:25:37;13.60;;;3.85;;
29878;SDS011;16752;53.364;-1.488;2023-04-24T11:28:30;7.15;;;3.25;;
29878;SDS011;16752;53.364;-1.488;2023-04-24T11:31:34;5.45;;;2.70;;
29878;SDS011;16752;53.364;-1.488;2023-04-24T11:34:22;13.38;;;3.05;;
29878;SDS011;16752;53.364;-1.488;2023-04-24T11:37:16;12.13;;;3.70;;
29878;SDS011;16752;53.364;-1.488;2023-04-24T11:40:00;11.85;;;3.65;;
29878;SDS011;16752;53.364;-1.488;2023-04-24T11:46:06;8.30;;;3.58;;
29878;SDS011;16752;53.364;-1.488;2023-04-24T11:48:53;6.85;;;2.95;;
29878;SDS011;16752;53.364;-1.488;2023-04-24T11:52:08;9.85;;;3.22;;
29878;SDS011;16752;53.364;-1.488;2023-04-24T11:54:52;16.55;;;3.13;;
29878;SDS011;16752;53.364;-1.488;2023-04-24T11:57:36;8.80;;;2.85;;
29878;SDS011;16752;53.364;-1.488;2023-04-24T12:00:24;11.27;;;3.75;;
29878;SDS011;16752;53.364;-1.488;2023-04-24T12:03:10;5.10;;;2.58;;
29878;SDS011;16752;53.364;-1.488;2023-04-24T12:06:05;10.30;;;3.42;;
29878;SDS011;16752;53.364;-1.488;2023-04-24T12:08:52;9.65;;;3.00;;
29878;SDS011;16752;53.364;-1.488;2023-04-24T12:11:38;14.57;;;3.83;;
29878;SDS011;16752;53.364;-1.488;2023-04-24T12:14:52;19.88;;;4.50;;
29878;SDS011;16752;53.364;-1.488;2023-04-24T12:17:40;9.23;;;3.03;;
29878;SDS011;16752;53.364;-1.488;2023-04-24T12:20:30;8.07;;;2.42;;
29878;SDS011;16752;53.364;-1.488;2023-04-24T12:23:16;10.63;;;3.42;;
29878;SDS011;16752;53.364;-1.488;2023-04-24T12:26:24;8.18;;;2.85;;
29878;SDS011;16752;53.364;-1.488;2023-04-24T12:29:19;13.88;;;3.15;;
29878;SDS011;16752;53.364;-1.488;2023-04-24T12:32:19;6.78;;;2.60;;
29878;SDS011;16752;53.364;-1.488;2023-04-24T12:35:06;5.10;;;2.65;;
29878;SDS011;16752;53.364;-1.488;2023-04-24T12:37:51;7.93;;;2.20;;
29878;SDS011;16752;53.364;-1.488;2023-04-24T12:41:01;9.38;;;2.88;;
29878;SDS011;16752;53.364;-1.488;2023-04-24T12:43:56;11.30;;;2.88;;
29878;SDS011;16752;53.364;-1.488;2023-04-24T12:46:43;6.45;;;2.42;;
29878;SDS011;16752;53.364;-1.488;2023-04-24T12:52:24;8.35;;;2.42;;
29878;SDS011;16752;53.364;-1.488;2023-04-24T12:55:09;8.75;;;2.58;;
29878;SDS011;16752;53.364;-1.488;2023-04-24T12:57:55;6.55;;;2.20;;
29878;SDS011;16752;53.364;-1.488;2023-04-24T13:00:39;5.57;;;2.22;;
29878;SDS011;16752;53.364;-1.488;2023-04-24T13:03:27;7.97;;;2.70;;
29878;SDS011;16752;53.364;-1.488;2023-04-24T13:06:16;5.00;;;2.00;;
29878;SDS011;16752;53.364;-1.488;2023-04-24T13:09:01;8.98;;;2.90;;
29878;SDS011;16752;53.364;-1.488;2023-04-24T13:11:45;8.75;;;2.70;;
29878;SDS011;16752;53.364;-1.488;2023-04-24T13:14:35;3.90;;;2.55;;
29878;SDS011;16752;53.364;-1.488;2023-04-24T13:17:20;8.15;;;2.97;;
29878;SDS011;16752;53.364;-1.488;2023-04-24T13:20:04;7.22;;;2.40;;
29878;SDS011;16752;53.364;-1.488;2023-04-24T13:22:56;7.97;;;2.58;;
29878;SDS011;16752;53.364;-1.488;2023-04-24T13:25:46;13.95;;;3.85;;
29878;SDS011;16752;53.364;-1.488;2023-04-24T13:28:41;14.68;;;3.35;;
29878;SDS011;16752;53.364;-1.488;2023-04-24T13:31:25;9.65;;;2.55;;
29878;SDS011;16752;53.364;-1.488;2023-04-24T13:34:10;10.05;;;2.65;;
29878;SDS011;16752;53.364;-1.488;2023-04-24T13:36:55;5.25;;;2.05;;
29878;SDS011;16752;53.364;-1.488;2023-04-24T13:39:47;16.35;;;3.58;;
29878;SDS011;16752;53.364;-1.488;2023-04-24T13:42:34;9.10;;;3.30;;
29878;SDS011;16752;53.364;-1.488;2023-04-24T13:45:26;11.82;;;2.92;;
29878;SDS011;16752;53.364;-1.488;2023-04-24T13:48:31;7.97;;;2.55;;
29878;SDS011;16752;53.364;-1.488;2023-04-24T13:51:27;13.82;;;2.90;;
29878;SDS011;16752;53.364;-1.488;2023-04-24T13:54:13;9.10;;;3.13;;
29878;SDS011;16752;53.364;-1.488;2023-04-24T13:56:57;11.95;;;2.50;;
29878;SDS011;16752;53.364;-1.488;2023-04-24T13:59:45;7.30;;;2.55;;
29878;SDS011;16752;53.364;-1.488;2023-04-24T14:02:29;11.90;;;3.05;;
29878;SDS011;16752;53.364;-1.488;2023-04-24T14:11:59;10.55;;;3.65;;
29878;SDS011;16752;53.364;-1.488;2023-04-24T14:15:04;12.05;;;2.60;;
29878;SDS011;16752;53.364;-1.488;2023-04-24T14:18:30;7.38;;;3.10;;
29878;SDS011;16752;53.364;-1.488;2023-04-24T14:21:39;10.10;;;2.92;;
29878;SDS011;16752;53.364;-1.488;2023-04-24T14:24:33;16.20;;;3.30;;
29878;SDS011;16752;53.364;-1.488;2023-04-24T14:27:27;13.52;;;3.25;;
29878;SDS011;16752;53.364;-1.488;2023-04-24T14:30:15;13.20;;;4.05;;
29878;SDS011;16752;53.364;-1.488;2023-04-24T14:33:02;14.13;;;3.05;;
29878;SDS011;16752;53.364;-1.488;2023-04-24T14:36:02;11.13;;;3.30;;
29878;SDS011;16752;53.364;-1.488;2023-04-24T14:38:50;10.40;;;3.45;;
29878;SDS011;16752;53.364;-1.488;2023-04-24T14:49:15;9.73;;;3.13;;
29878;SDS011;16752;53.364;-1.488;2023-04-24T14:52:07;8.55;;;2.25;;
29878;SDS011;16752;53.364;-1.488;2023-04-24T14:58:46;6.18;;;2.33;;
29878;SDS011;16752;53.364;-1.488;2023-04-24T15:02:01;10.15;;;3.05;;
29878;SDS011;16752;53.364;-1.488;2023-04-24T15:04:59;6.50;;;2.85;;
29878;SDS011;16752;53.364;-1.488;2023-04-24T15:07:44;8.13;;;2.75;;
29878;SDS011;16752;53.364;-1.488;2023-04-24T15:10:29;6.80;;;2.42;;
29878;SDS011;16752;53.364;-1.488;2023-04-24T15:13:14;13.43;;;2.90;;
29878;SDS011;16752;53.364;-1.488;2023-04-24T15:16:00;8.40;;;2.20;;
29878;SDS011;16752;53.364;-1.488;2023-04-24T15:18:47;10.25;;;2.47;;
29878;SDS011;16752;53.364;-1.488;2023-04-24T15:21:31;9.65;;;2.08;;
29878;SDS011;16752;53.364;-1.488;2023-04-24T15:24:16;6.55;;;2.50;;
29878;SDS011;16752;53.364;-1.488;2023-04-24T15:27:05;11.63;;;2.17;;
29878;SDS011;16752;53.364;-1.488;2023-04-24T15:32:42;8.63;;;2.88;;
29878;SDS011;16752;53.364;-1.488;2023-04-24T15:35:29;14.20;;;3.38;;
29878;SDS011;16752;53.364;-1.488;2023-04-24T15:38:16;11.23;;;3.30;;
29878;SDS011;16752;53.364;-1.488;2023-04-24T15:41:00;17.02;;;3.55;;
29878;SDS011;16752;53.364;-1.488;2023-04-24T15:43:50;11.63;;;3.75;;
29878;SDS011;16752;53.364;-1.488;2023-04-24T15:46:40;8.48;;;2.85;;
29878;SDS011;16752;53.364;-1.488;2023-04-24T15:49:24;11.82;;;2.58;;
29878;SDS011;16752;53.364;-1.488;2023-04-24T15:52:09;11.43;;;3.42;;
29878;SDS011;16752;53.364;-1.488;2023-04-24T15:54:53;12.00;;;3.10;;
29878;SDS011;16752;53.364;-1.488;2023-04-24T15:57:38;12.10;;;3.40;;
29878;SDS011;16752;53.364;-1.488;2023-04-24T16:00:22;11.30;;;3.47;;
29878;SDS011;16752;53.364;-1.488;2023-04-24T16:09:10;8.57;;;2.70;;
29878;SDS011;16752;53.364;-1.488;2023-04-24T16:11:55;9.15;;;3.13;;
29878;SDS011;16752;53.364;-1.488;2023-04-24T16:14:39;17.60;;;4.28;;
29878;SDS011;16752;53.364;-1.488;2023-04-24T16:17:23;14.25;;;3.58;;
29878;SDS011;16752;53.364;-1.488;2023-04-24T16:20:07;10.52;;;4.05;;
29878;SDS011;16752;53.364;-1.488;2023-04-24T16:22:52;11.77;;;3.92;;
29878;SDS011;16752;53.364;-1.488;2023-04-24T16:25:36;12.18;;;3.95;;
29878;SDS011;16752;53.364;-1.488;2023-04-24T16:28:21;18.85;;;5.40;;
29878;SDS011;16752;53.364;-1.488;2023-04-24T16:31:05;17.00;;;4.47;;
29878;SDS011;16752;53.364;-1.488;2023-04-24T16:33:49;23.77;;;4.88;;
29878;SDS011;16752;53.364;-1.488;2023-04-24T16:36:34;15.00;;;4.18;;
29878;SDS011;16752;53.364;-1.488;2023-04-24T16:39:19;12.43;;;3.90;;
29878;SDS011;16752;53.364;-1.488;2023-04-24T16:49:41;6.25;;;2.72;;
29878;SDS011;16752;53.364;-1.488;2023-04-24T16:52:30;7.70;;;3.10;;
29878;SDS011;16752;53.364;-1.488;2023-04-24T16:58:09;8.27;;;3.45;;
29878;SDS011;16752;53.364;-1.488;2023-04-24T17:00:56;11.88;;;3.55;;
29878;SDS011;16752;53.364;-1.488;2023-04-24T17:03:41;10.32;;;2.55;;
29878;SDS011;16752;53.364;-1.488;2023-04-24T17:06:46;9.23;;;2.83;;
29878;SDS011;16752;53.364;-1.488;2023-04-24T17:09:50;8.80;;;2.87;;
29878;SDS011;16752;53.364;-1.488;2023-04-24T17:12:35;11.82;;;2.65;;
29878;SDS011;16752;53.364;-1.488;2023-04-24T17:19:35;12.40;;;3.30;;
29878;SDS011;16752;53.364;-1.488;2023-04-24T17:22:19;21.40;;;4.22;;
29878;SDS011;16752;53.364;-1.488;2023-04-24T17:25:06;7.40;;;3.13;;
29878;SDS011;16752;53.364;-1.488;2023-04-24T17:27:50;11.13;;;2.95;;
29878;SDS011;16752;53.364;-1.488;2023-04-24T17:30:34;7.38;;;2.50;;
29878;SDS011;16752;53.364;-1.488;2023-04-24T17:33:21;7.97;;;3.35;;
29878;SDS011;16752;53.364;-1.488;2023-04-24T17:36:18;10.50;;;3.20;;
29878;SDS011;16752;53.364;-1.488;2023-04-24T17:39:02;12.65;;;3.67;;
29878;SDS011;16752;53.364;-1.488;2023-04-24T17:41:46;12.90;;;3.72;;
29878;SDS011;16752;53.364;-1.488;2023-04-24T17:44:30;10.20;;;3.88;;
29878;SDS011;16752;53.364;-1.488;2023-04-24T17:47:14;11.75;;;3.50;;
29878;SDS011;16752;53.364;-1.488;2023-04-24T17:49:58;10.82;;;2.90;;
29878;SDS011;16752;53.364;-1.488;2023-04-24T17:52:42;6.53;;;2.00;;
29878;SDS011;16752;53.364;-1.488;2023-04-24T17:55:26;8.23;;;2.25;;